sensor_id;sensor_type;location;lat;lon;timestamp;P1;durP1;ratioP1;P2;durP2;ratioP2
38220;SDS011;24023;51.280;7.148;2023-09-30T00:00:12;7.9;;;2.7;;
38220;SDS011;24023;51.280;7.148;2023-09-30T00:05:06;7.9;;;2.7;;
38220;SDS011;24023;51.280;7.148;2023-09-30T00:10:08;7.9;;;2.7;;
38220;SDS011;24023;51.280;7.148;2023-09-30T00:15:07;6.5;;;2.8;;
38220;SDS011;24023;51.280;7.148;2023-09-30T00:20:09;6.5;;;2.8;;
38220;SDS011;24023;51.280;7.148;2023-09-30T00:25:06;6.6;;;2.6;;
38220;SDS011;24023;51.280;7.148;2023-09-30T00:30:09;6.6;;;2.6;;
38220;SDS011;24023;51.280;7.148;2023-09-30T00:35:09;5.8;;;2.0;;
38220;SDS011;24023;51.280;7.148;2023-09-30T00:40:08;5.8;;;2.0;;
38220;SDS011;24023;51.280;7.148;2023-09-30T00:45:10;5.8;;;2.0;;
38220;SDS011;24023;51.280;7.148;2023-09-30T00:50:08;5.5;;;2.2;;
38220;SDS011;24023;51.280;7.148;2023-09-30T00:55:06;5.5;;;2.2;;
38220;SDS011;24023;51.280;7.148;2023-09-30T01:00:12;6.2;;;2.5;;
38220;SDS011;24023;51.280;7.148;2023-09-30T01:05:07;8.0;;;3.1;;
38220;SDS011;24023;51.280;7.148;2023-09-30T01:10:08;8.0;;;3.1;;
38220;SDS011;24023;51.280;7.148;2023-09-30T01:15:08;8.0;;;3.1;;
38220;SDS011;24023;51.280;7.148;2023-09-30T01:20:09;6.6;;;3.2;;
38220;SDS011;24023;51.280;7.148;2023-09-30T01:25:07;9.3;;;3.1;;
38220;SDS011;24023;51.280;7.148;2023-09-30T01:30:11;9.3;;;3.1;;
38220;SDS011;24023;51.280;7.148;2023-09-30T01:35:06;9.3;;;3.1;;
38220;SDS011;24023;51.280;7.148;2023-09-30T01:40:08;9.6;;;3.8;;
38220;SDS011;24023;51.280;7.148;2023-09-30T01:45:10;9.6;;;3.8;;
38220;SDS011;24023;51.280;7.148;2023-09-30T01:50:08;8.9;;;3.9;;
38220;SDS011;24023;51.280;7.148;2023-09-30T01:55:07;5.9;;;2.8;;
38220;SDS011;24023;51.280;7.148;2023-09-30T02:00:13;5.9;;;2.8;;
38220;SDS011;24023;51.280;7.148;2023-09-30T02:05:08;5.9;;;2.8;;
38220;SDS011;24023;51.280;7.148;2023-09-30T02:10:08;7.2;;;3.2;;
38220;SDS011;24023;51.280;7.148;2023-09-30T02:15:08;7.2;;;3.2;;
38220;SDS011;24023;51.280;7.148;2023-09-30T02:20:12;7.4;;;4.0;;
38220;SDS011;24023;51.280;7.148;2023-09-30T02:25:08;7.4;;;4.0;;
38220;SDS011;24023;51.280;7.148;2023-09-30T02:30:11;7.4;;;4.0;;
38220;SDS011;24023;51.280;7.148;2023-09-30T02:35:07;7.1;;;3.4;;
38220;SDS011;24023;51.280;7.148;2023-09-30T02:40:09;7.1;;;3.4;;
38220;SDS011;24023;51.280;7.148;2023-09-30T02:45:10;4.4;;;2.5;;
38220;SDS011;24023;51.280;7.148;2023-09-30T02:50:09;4.4;;;2.5;;
38220;SDS011;24023;51.280;7.148;2023-09-30T02:55:07;4.4;;;2.5;;
38220;SDS011;24023;51.280;7.148;2023-09-30T03:00:23;5.8;;;3.0;;
38220;SDS011;24023;51.280;7.148;2023-09-30T03:05:08;5.8;;;3.0;;
38220;SDS011;24023;51.280;7.148;2023-09-30T03:10:09;6.5;;;3.3;;
38220;SDS011;24023;51.280;7.148;2023-09-30T03:15:09;6.5;;;3.3;;
38220;SDS011;24023;51.280;7.148;2023-09-30T03:20:11;6.5;;;3.3;;
38220;SDS011;24023;51.280;7.148;2023-09-30T03:25:07;6.3;;;3.0;;
38220;SDS011;24023;51.280;7.148;2023-09-30T03:30:09;6.3;;;3.0;;
38220;SDS011;24023;51.280;7.148;2023-09-30T03:35:08;7.0;;;3.3;;
38220;SDS011;24023;51.280;7.148;2023-09-30T03:40:14;7.0;;;3.3;;
38220;SDS011;24023;51.280;7.148;2023-09-30T03:45:09;7.0;;;3.3;;
38220;SDS011;24023;51.280;7.148;2023-09-30T03:50:13;6.3;;;3.0;;
38220;SDS011;24023;51.280;7.148;2023-09-30T03:55:06;6.3;;;3.0;;
38220;SDS011;24023;51.280;7.148;2023-09-30T04:00:16;7.6;;;3.5;;
38220;SDS011;24023;51.280;7.148;2023-09-30T04:05:07;7.6;;;3.5;;
38220;SDS011;24023;51.280;7.148;2023-09-30T04:10:08;7.6;;;3.5;;
38220;SDS011;24023;51.280;7.148;2023-09-30T04:15:10;5.2;;;2.7;;
38220;SDS011;24023;51.280;7.148;2023-09-30T04:20:10;5.2;;;2.7;;
38220;SDS011;24023;51.280;7.148;2023-09-30T04:25:09;5.2;;;2.7;;
38220;SDS011;24023;51.280;7.148;2023-09-30T04:30:09;5.5;;;2.9;;
38220;SDS011;24023;51.280;7.148;2023-09-30T04:35:08;7.2;;;3.2;;
38220;SDS011;24023;51.280;7.148;2023-09-30T04:40:09;7.2;;;3.2;;
38220;SDS011;24023;51.280;7.148;2023-09-30T04:45:10;7.2;;;3.2;;
38220;SDS011;24023;51.280;7.148;2023-09-30T04:50:08;6.8;;;3.0;;
38220;SDS011;24023;51.280;7.148;2023-09-30T04:55:06;6.8;;;3.0;;
38220;SDS011;24023;51.280;7.148;2023-09-30T05:00:12;5.5;;;2.8;;
38220;SDS011;24023;51.280;7.148;2023-09-30T05:05:07;8.0;;;3.7;;
38220;SDS011;24023;51.280;7.148;2023-09-30T05:10:11;8.0;;;3.7;;
38220;SDS011;24023;51.280;7.148;2023-09-30T05:15:08;5.4;;;2.8;;
38220;SDS011;24023;51.280;7.148;2023-09-30T05:20:08;5.4;;;2.8;;
38220;SDS011;24023;51.280;7.148;2023-09-30T05:25:07;23.9;;;8.9;;
38220;SDS011;24023;51.280;7.148;2023-09-30T05:30:10;23.9;;;8.9;;
38220;SDS011;24023;51.280;7.148;2023-09-30T05:35:12;19.7;;;8.7;;
38220;SDS011;24023;51.280;7.148;2023-09-30T05:40:16;19.7;;;8.7;;
38220;SDS011;24023;51.280;7.148;2023-09-30T05:45:10;15.9;;;8.9;;
38220;SDS011;24023;51.280;7.148;2023-09-30T05:50:08;15.9;;;8.9;;
38220;SDS011;24023;51.280;7.148;2023-09-30T05:55:07;30.2;;;9.1;;
38220;SDS011;24023;51.280;7.148;2023-09-30T06:00:15;30.2;;;9.1;;
38220;SDS011;24023;51.280;7.148;2023-09-30T06:05:07;30.0;;;7.5;;
38220;SDS011;24023;51.280;7.148;2023-09-30T06:10:09;30.0;;;7.5;;
38220;SDS011;24023;51.280;7.148;2023-09-30T06:15:08;30.0;;;7.5;;
38220;SDS011;24023;51.280;7.148;2023-09-30T06:20:10;30.6;;;7.2;;
38220;SDS011;24023;51.280;7.148;2023-09-30T06:25:06;12.1;;;7.3;;
38220;SDS011;24023;51.280;7.148;2023-09-30T06:30:09;12.1;;;7.3;;
38220;SDS011;24023;51.280;7.148;2023-09-30T06:35:07;21.0;;;7.3;;
38220;SDS011;24023;51.280;7.148;2023-09-30T06:40:09;21.0;;;7.3;;
38220;SDS011;24023;51.280;7.148;2023-09-30T06:45:10;12.7;;;7.3;;
38220;SDS011;24023;51.280;7.148;2023-09-30T06:50:09;12.7;;;7.3;;
38220;SDS011;24023;51.280;7.148;2023-09-30T06:55:07;8.8;;;4.9;;
38220;SDS011;24023;51.280;7.148;2023-09-30T07:00:12;8.8;;;4.9;;
38220;SDS011;24023;51.280;7.148;2023-09-30T07:05:07;8.8;;;4.9;;
38220;SDS011;24023;51.280;7.148;2023-09-30T07:10:08;7.6;;;4.7;;
38220;SDS011;24023;51.280;7.148;2023-09-30T07:15:08;7.6;;;4.7;;
38220;SDS011;24023;51.280;7.148;2023-09-30T07:20:08;8.9;;;5.2;;
38220;SDS011;24023;51.280;7.148;2023-09-30T07:25:07;8.9;;;5.2;;
38220;SDS011;24023;51.280;7.148;2023-09-30T07:30:10;8.9;;;5.2;;
38220;SDS011;24023;51.280;7.148;2023-09-30T07:35:06;8.7;;;4.9;;
38220;SDS011;24023;51.280;7.148;2023-09-30T07:40:08;8.7;;;4.9;;
38220;SDS011;24023;51.280;7.148;2023-09-30T07:45:09;11.6;;;5.2;;
38220;SDS011;24023;51.280;7.148;2023-09-30T07:50:10;11.6;;;5.2;;
38220;SDS011;24023;51.280;7.148;2023-09-30T07:55:07;11.6;;;5.2;;
38220;SDS011;24023;51.280;7.148;2023-09-30T08:00:15;10.8;;;5.5;;
38220;SDS011;24023;51.280;7.148;2023-09-30T08:05:06;10.8;;;5.5;;
38220;SDS011;24023;51.280;7.148;2023-09-30T08:10:13;10.5;;;6.4;;
38220;SDS011;24023;51.280;7.148;2023-09-30T08:15:09;10.5;;;6.4;;
38220;SDS011;24023;51.280;7.148;2023-09-30T08:20:09;10.5;;;6.4;;
38220;SDS011;24023;51.280;7.148;2023-09-30T08:25:07;10.0;;;5.9;;
38220;SDS011;24023;51.280;7.148;2023-09-30T08:30:08;10.0;;;5.9;;
38220;SDS011;24023;51.280;7.148;2023-09-30T08:35:07;9.2;;;4.6;;
38220;SDS011;24023;51.280;7.148;2023-09-30T08:40:10;9.2;;;4.6;;
38220;SDS011;24023;51.280;7.148;2023-09-30T08:45:10;10.8;;;5.4;;
38220;SDS011;24023;51.280;7.148;2023-09-30T08:50:09;10.8;;;5.4;;
38220;SDS011;24023;51.280;7.148;2023-09-30T08:55:07;9.0;;;5.2;;
38220;SDS011;24023;51.280;7.148;2023-09-30T09:00:12;9.0;;;5.2;;
38220;SDS011;24023;51.280;7.148;2023-09-30T09:05:07;9.0;;;5.2;;
38220;SDS011;24023;51.280;7.148;2023-09-30T09:10:09;9.1;;;5.7;;
38220;SDS011;24023;51.280;7.148;2023-09-30T09:15:20;9.1;;;5.7;;
38220;SDS011;24023;51.280;7.148;2023-09-30T09:20:10;10.2;;;4.9;;
38220;SDS011;24023;51.280;7.148;2023-09-30T09:25:07;10.2;;;4.9;;
38220;SDS011;24023;51.280;7.148;2023-09-30T09:30:16;10.2;;;4.9;;
38220;SDS011;24023;51.280;7.148;2023-09-30T09:35:07;8.7;;;4.1;;
38220;SDS011;24023;51.280;7.148;2023-09-30T09:40:08;7.6;;;3.4;;
38220;SDS011;24023;51.280;7.148;2023-09-30T09:45:09;7.6;;;3.4;;
38220;SDS011;24023;51.280;7.148;2023-09-30T09:50:08;8.0;;;3.8;;
38220;SDS011;24023;51.280;7.148;2023-09-30T09:55:07;8.0;;;3.8;;
38220;SDS011;24023;51.280;7.148;2023-09-30T10:00:16;7.0;;;3.1;;
38220;SDS011;24023;51.280;7.148;2023-09-30T10:05:07;10.7;;;4.7;;
38220;SDS011;24023;51.280;7.148;2023-09-30T10:10:10;10.7;;;4.7;;
38220;SDS011;24023;51.280;7.148;2023-09-30T10:15:39;8.7;;;4.7;;
38220;SDS011;24023;51.280;7.148;2023-09-30T10:20:08;8.7;;;4.7;;
38220;SDS011;24023;51.280;7.148;2023-09-30T10:25:32;8.7;;;4.7;;
38220;SDS011;24023;51.280;7.148;2023-09-30T10:30:13;7.5;;;4.7;;
38220;SDS011;24023;51.280;7.148;2023-09-30T10:35:07;7.5;;;4.7;;
38220;SDS011;24023;51.280;7.148;2023-09-30T10:40:10;7.5;;;4.7;;
38220;SDS011;24023;51.280;7.148;2023-09-30T10:45:16;6.3;;;3.8;;
38220;SDS011;24023;51.280;7.148;2023-09-30T10:55:07;6.3;;;3.8;;
38220;SDS011;24023;51.280;7.148;2023-09-30T11:00:12;6.6;;;3.6;;
38220;SDS011;24023;51.280;7.148;2023-09-30T11:05:08;6.6;;;3.6;;
38220;SDS011;24023;51.280;7.148;2023-09-30T11:10:08;6.0;;;2.6;;
38220;SDS011;24023;51.280;7.148;2023-09-30T11:15:10;6.0;;;2.6;;
38220;SDS011;24023;51.280;7.148;2023-09-30T11:20:08;6.0;;;2.6;;
38220;SDS011;24023;51.280;7.148;2023-09-30T11:25:14;5.5;;;2.5;;
38220;SDS011;24023;51.280;7.148;2023-09-30T11:30:09;5.5;;;2.5;;
38220;SDS011;24023;51.280;7.148;2023-09-30T11:35:08;5.3;;;2.4;;
38220;SDS011;24023;51.280;7.148;2023-09-30T11:40:09;5.3;;;2.4;;
38220;SDS011;24023;51.280;7.148;2023-09-30T11:45:24;5.3;;;2.4;;
38220;SDS011;24023;51.280;7.148;2023-09-30T11:50:08;5.3;;;2.8;;
38220;SDS011;24023;51.280;7.148;2023-09-30T11:55:06;3.7;;;2.2;;
38220;SDS011;24023;51.280;7.148;2023-09-30T12:00:14;3.7;;;2.2;;
38220;SDS011;24023;51.280;7.148;2023-09-30T12:05:11;6.3;;;2.6;;
38220;SDS011;24023;51.280;7.148;2023-09-30T12:10:08;6.3;;;2.6;;
38220;SDS011;24023;51.280;7.148;2023-09-30T12:15:09;6.3;;;2.6;;
38220;SDS011;24023;51.280;7.148;2023-09-30T12:20:09;5.8;;;2.9;;
38220;SDS011;24023;51.280;7.148;2023-09-30T12:25:08;5.8;;;2.9;;
38220;SDS011;24023;51.280;7.148;2023-09-30T12:30:09;4.5;;;2.0;;
38220;SDS011;24023;51.280;7.148;2023-09-30T12:35:06;4.5;;;2.0;;
38220;SDS011;24023;51.280;7.148;2023-09-30T12:40:08;4.5;;;2.0;;
38220;SDS011;24023;51.280;7.148;2023-09-30T12:45:09;5.2;;;2.3;;
38220;SDS011;24023;51.280;7.148;2023-09-30T12:50:09;4.9;;;2.3;;
38220;SDS011;24023;51.280;7.148;2023-09-30T12:55:07;4.9;;;2.3;;
38220;SDS011;24023;51.280;7.148;2023-09-30T13:00:11;4.8;;;2.7;;
38220;SDS011;24023;51.280;7.148;2023-09-30T13:05:07;5.4;;;2.6;;
38220;SDS011;24023;51.280;7.148;2023-09-30T13:10:09;5.4;;;2.6;;
38220;SDS011;24023;51.280;7.148;2023-09-30T13:15:09;5.4;;;2.6;;
38220;SDS011;24023;51.280;7.148;2023-09-30T13:20:09;5.5;;;2.8;;
38220;SDS011;24023;51.280;7.148;2023-09-30T13:25:08;5.3;;;2.7;;
38220;SDS011;24023;51.280;7.148;2023-09-30T13:30:09;5.3;;;2.7;;
38220;SDS011;24023;51.280;7.148;2023-09-30T13:35:07;5.3;;;2.7;;
38220;SDS011;24023;51.280;7.148;2023-09-30T13:40:09;5.3;;;2.7;;
38220;SDS011;24023;51.280;7.148;2023-09-30T13:45:10;6.4;;;2.3;;
38220;SDS011;24023;51.280;7.148;2023-09-30T13:50:10;6.4;;;2.3;;
38220;SDS011;24023;51.280;7.148;2023-09-30T13:55:06;6.4;;;2.3;;
38220;SDS011;24023;51.280;7.148;2023-09-30T14:00:12;5.4;;;2.6;;
38220;SDS011;24023;51.280;7.148;2023-09-30T14:05:08;5.4;;;2.6;;
38220;SDS011;24023;51.280;7.148;2023-09-30T14:10:10;5.4;;;2.6;;
38220;SDS011;24023;51.280;7.148;2023-09-30T14:15:08;5.4;;;2.6;;
38220;SDS011;24023;51.280;7.148;2023-09-30T14:20:08;6.1;;;2.7;;
38220;SDS011;24023;51.280;7.148;2023-09-30T14:25:08;6.1;;;2.7;;
38220;SDS011;24023;51.280;7.148;2023-09-30T14:30:09;5.5;;;2.3;;
38220;SDS011;24023;51.280;7.148;2023-09-30T14:35:07;5.5;;;2.3;;
38220;SDS011;24023;51.280;7.148;2023-09-30T14:40:11;4.1;;;2.1;;
38220;SDS011;24023;51.280;7.148;2023-09-30T14:45:11;4.1;;;2.1;;
38220;SDS011;24023;51.280;7.148;2023-09-30T14:50:09;4.1;;;2.1;;
38220;SDS011;24023;51.280;7.148;2023-09-30T14:55:06;5.1;;;2.4;;
38220;SDS011;24023;51.280;7.148;2023-09-30T15:00:11;5.4;;;2.1;;
38220;SDS011;24023;51.280;7.148;2023-09-30T15:05:06;5.4;;;2.1;;
38220;SDS011;24023;51.280;7.148;2023-09-30T15:10:08;5.4;;;2.1;;
38220;SDS011;24023;51.280;7.148;2023-09-30T15:15:09;4.2;;;2.1;;
38220;SDS011;24023;51.280;7.148;2023-09-30T15:20:08;4.2;;;2.1;;
38220;SDS011;24023;51.280;7.148;2023-09-30T15:25:07;5.8;;;2.6;;
38220;SDS011;24023;51.280;7.148;2023-09-30T15:30:10;5.8;;;2.6;;
38220;SDS011;24023;51.280;7.148;2023-09-30T15:35:06;5.8;;;2.6;;
38220;SDS011;24023;51.280;7.148;2023-09-30T15:40:08;4.3;;;2.4;;
38220;SDS011;24023;51.280;7.148;2023-09-30T15:45:10;4.3;;;2.4;;
38220;SDS011;24023;51.280;7.148;2023-09-30T15:50:08;3.9;;;1.7;;
38220;SDS011;24023;51.280;7.148;2023-09-30T15:55:06;3.9;;;1.7;;
38220;SDS011;24023;51.280;7.148;2023-09-30T16:00:14;4.3;;;2.2;;
38220;SDS011;24023;51.280;7.148;2023-09-30T16:05:06;4.3;;;2.2;;
38220;SDS011;24023;51.280;7.148;2023-09-30T16:10:08;4.2;;;1.9;;
38220;SDS011;24023;51.280;7.148;2023-09-30T16:15:11;4.2;;;1.9;;
38220;SDS011;24023;51.280;7.148;2023-09-30T16:20:09;4.2;;;1.9;;
38220;SDS011;24023;51.280;7.148;2023-09-30T16:25:06;5.5;;;2.4;;
38220;SDS011;24023;51.280;7.148;2023-09-30T16:30:09;5.5;;;2.4;;
38220;SDS011;24023;51.280;7.148;2023-09-30T16:35:07;4.1;;;2.1;;
38220;SDS011;24023;51.280;7.148;2023-09-30T16:40:08;4.1;;;2.1;;
38220;SDS011;24023;51.280;7.148;2023-09-30T16:45:09;4.1;;;2.1;;
38220;SDS011;24023;51.280;7.148;2023-09-30T16:50:08;5.5;;;2.8;;
38220;SDS011;24023;51.280;7.148;2023-09-30T16:55:08;5.5;;;2.8;;
38220;SDS011;24023;51.280;7.148;2023-09-30T17:00:11;4.3;;;2.5;;
38220;SDS011;24023;51.280;7.148;2023-09-30T17:05:07;4.3;;;2.5;;
38220;SDS011;24023;51.280;7.148;2023-09-30T17:10:09;4.3;;;2.5;;
38220;SDS011;24023;51.280;7.148;2023-09-30T17:15:08;3.8;;;2.7;;
38220;SDS011;24023;51.280;7.148;2023-09-30T17:20:09;3.8;;;2.7;;
38220;SDS011;24023;51.280;7.148;2023-09-30T17:25:06;4.2;;;2.7;;
38220;SDS011;24023;51.280;7.148;2023-09-30T17:30:10;4.2;;;2.7;;
38220;SDS011;24023;51.280;7.148;2023-09-30T17:35:07;4.2;;;2.7;;
38220;SDS011;24023;51.280;7.148;2023-09-30T17:40:07;4.9;;;3.2;;
38220;SDS011;24023;51.280;7.148;2023-09-30T17:45:10;4.9;;;3.2;;
38220;SDS011;24023;51.280;7.148;2023-09-30T17:50:08;5.7;;;3.6;;
38220;SDS011;24023;51.280;7.148;2023-09-30T17:55:06;18.4;;;11.2;;
38220;SDS011;24023;51.280;7.148;2023-09-30T18:00:14;18.4;;;11.2;;
38220;SDS011;24023;51.280;7.148;2023-09-30T18:05:08;6.3;;;3.5;;
38220;SDS011;24023;51.280;7.148;2023-09-30T18:10:09;6.3;;;3.5;;
38220;SDS011;24023;51.280;7.148;2023-09-30T18:15:08;6.3;;;3.5;;
38220;SDS011;24023;51.280;7.148;2023-09-30T18:20:09;6.0;;;4.2;;
38220;SDS011;24023;51.280;7.148;2023-09-30T18:25:07;6.0;;;4.2;;
38220;SDS011;24023;51.280;7.148;2023-09-30T18:30:09;7.3;;;5.5;;
38220;SDS011;24023;51.280;7.148;2023-09-30T18:35:07;7.3;;;5.5;;
38220;SDS011;24023;51.280;7.148;2023-09-30T18:40:08;7.3;;;5.5;;
38220;SDS011;24023;51.280;7.148;2023-09-30T18:45:09;6.3;;;4.1;;
38220;SDS011;24023;51.280;7.148;2023-09-30T18:50:07;6.3;;;4.1;;
38220;SDS011;24023;51.280;7.148;2023-09-30T18:55:08;5.9;;;4.0;;
38220;SDS011;24023;51.280;7.148;2023-09-30T19:00:14;5.9;;;4.0;;
38220;SDS011;24023;51.280;7.148;2023-09-30T19:05:07;5.9;;;4.0;;
38220;SDS011;24023;51.280;7.148;2023-09-30T19:10:08;6.5;;;4.0;;
38220;SDS011;24023;51.280;7.148;2023-09-30T19:15:10;6.5;;;4.0;;
38220;SDS011;24023;51.280;7.148;2023-09-30T19:20:09;6.5;;;3.9;;
38220;SDS011;24023;51.280;7.148;2023-09-30T19:25:07;6.5;;;3.9;;
38220;SDS011;24023;51.280;7.148;2023-09-30T19:30:10;6.5;;;3.9;;
38220;SDS011;24023;51.280;7.148;2023-09-30T19:35:07;6.0;;;3.5;;
38220;SDS011;24023;51.280;7.148;2023-09-30T19:40:08;6.0;;;3.5;;
38220;SDS011;24023;51.280;7.148;2023-09-30T19:45:10;5.7;;;3.7;;
38220;SDS011;24023;51.280;7.148;2023-09-30T19:50:09;5.7;;;3.7;;
38220;SDS011;24023;51.280;7.148;2023-09-30T19:55:06;5.4;;;3.8;;
38220;SDS011;24023;51.280;7.148;2023-09-30T20:00:16;5.4;;;3.8;;
38220;SDS011;24023;51.280;7.148;2023-09-30T20:05:09;5.4;;;3.8;;
38220;SDS011;24023;51.280;7.148;2023-09-30T20:10:09;5.4;;;4.0;;
38220;SDS011;24023;51.280;7.148;2023-09-30T20:15:08;5.4;;;4.0;;
38220;SDS011;24023;51.280;7.148;2023-09-30T20:20:15;6.3;;;4.7;;
38220;SDS011;24023;51.280;7.148;2023-09-30T20:25:07;6.3;;;4.7;;
38220;SDS011;24023;51.280;7.148;2023-09-30T20:30:09;6.3;;;4.7;;
38220;SDS011;24023;51.280;7.148;2023-09-30T20:35:07;6.0;;;3.8;;
38220;SDS011;24023;51.280;7.148;2023-09-30T20:40:11;6.0;;;3.8;;
38220;SDS011;24023;51.280;7.148;2023-09-30T20:45:09;5.5;;;4.1;;
38220;SDS011;24023;51.280;7.148;2023-09-30T20:50:08;5.5;;;4.1;;
38220;SDS011;24023;51.280;7.148;2023-09-30T20:55:07;5.5;;;4.1;;
38220;SDS011;24023;51.280;7.148;2023-09-30T21:00:11;5.4;;;3.9;;
38220;SDS011;24023;51.280;7.148;2023-09-30T21:05:07;5.4;;;3.9;;
38220;SDS011;24023;51.280;7.148;2023-09-30T21:10:08;5.5;;;3.6;;
38220;SDS011;24023;51.280;7.148;2023-09-30T21:15:08;5.5;;;3.6;;
38220;SDS011;24023;51.280;7.148;2023-09-30T21:20:08;5.2;;;3.1;;
38220;SDS011;24023;51.280;7.148;2023-09-30T21:25:07;5.2;;;3.1;;
38220;SDS011;24023;51.280;7.148;2023-09-30T21:30:09;5.2;;;3.1;;
38220;SDS011;24023;51.280;7.148;2023-09-30T21:35:07;4.9;;;3.4;;
38220;SDS011;24023;51.280;7.148;2023-09-30T21:40:08;4.9;;;3.4;;
38220;SDS011;24023;51.280;7.148;2023-09-30T21:45:09;4.5;;;3.0;;
38220;SDS011;24023;51.280;7.148;2023-09-30T21:50:09;4.5;;;3.0;;
38220;SDS011;24023;51.280;7.148;2023-09-30T21:55:07;4.5;;;3.0;;
38220;SDS011;24023;51.280;7.148;2023-09-30T22:00:27;5.3;;;3.2;;
38220;SDS011;24023;51.280;7.148;2023-09-30T22:05:08;5.3;;;3.2;;
38220;SDS011;24023;51.280;7.148;2023-09-30T22:10:08;4.6;;;2.8;;
38220;SDS011;24023;51.280;7.148;2023-09-30T22:15:08;4.6;;;2.8;;
38220;SDS011;24023;51.280;7.148;2023-09-30T22:20:11;4.6;;;2.8;;
38220;SDS011;24023;51.280;7.148;2023-09-30T22:25:06;4.3;;;3.0;;
38220;SDS011;24023;51.280;7.148;2023-09-30T22:30:09;4.3;;;3.0;;
38220;SDS011;24023;51.280;7.148;2023-09-30T22:35:07;4.9;;;3.4;;
38220;SDS011;24023;51.280;7.148;2023-09-30T22:40:08;4.9;;;3.4;;
38220;SDS011;24023;51.280;7.148;2023-09-30T22:45:10;4.9;;;3.4;;
38220;SDS011;24023;51.280;7.148;2023-09-30T22:50:08;5.2;;;3.3;;
38220;SDS011;24023;51.280;7.148;2023-09-30T22:55:10;5.2;;;3.3;;
38220;SDS011;24023;51.280;7.148;2023-09-30T23:00:13;5.6;;;3.1;;
38220;SDS011;24023;51.280;7.148;2023-09-30T23:05:09;5.6;;;3.1;;
38220;SDS011;24023;51.280;7.148;2023-09-30T23:10:09;4.3;;;2.5;;
38220;SDS011;24023;51.280;7.148;2023-09-30T23:15:08;4.3;;;2.5;;
38220;SDS011;24023;51.280;7.148;2023-09-30T23:20:21;4.3;;;2.5;;
38220;SDS011;24023;51.280;7.148;2023-09-30T23:25:08;5.3;;;3.3;;
38220;SDS011;24023;51.280;7.148;2023-09-30T23:30:14;5.3;;;3.3;;
38220;SDS011;24023;51.280;7.148;2023-09-30T23:35:09;4.4;;;3.1;;
38220;SDS011;24023;51.280;7.148;2023-09-30T23:40:09;4.4;;;3.1;;
38220;SDS011;24023;51.280;7.148;2023-09-30T23:45:10;4.4;;;3.1;;
38220;SDS011;24023;51.280;7.148;2023-09-30T23:50:08;5.1;;;3.2;;
38220;SDS011;24023;51.280;7.148;2023-09-30T23:55:12;5.1;;;3.2;;
